Time;durP1;ratioP1;P1;durP2;ratioP2;P2;SDS_P1;SDS_P2;PMS_P1;PMS_P2;Temp;Humidity;BMP_temperature;BMP_pressure;BME280_temperature;BME280_humidity;BME280_pressure;Samples;Min_cycle;Max_cycle;Signal;HPM_P1;HPM_P2
2022/05/21 00:02:15;;;;;;;9.33;4.90;;;;;;;10.68;84.35;101891.34;6215457;23;20088;-84
2022/05/21 00:04:43;;;;;;;8.60;5.10;;;;;;;10.69;85.76;101893.09;6213941;23;20429;-84
2022/05/21 00:07:10;;;;;;;10.25;5.25;;;;;;;10.68;85.12;101886.16;6215329;23;20052;-84
2022/05/21 00:09:36;;;;;;;9.20;4.93;;;;;;;10.70;84.38;101898.28;6214948;23;20001;-84
2022/05/21 00:12:01;;;;;;;7.37;4.40;;;;;;;10.71;84.56;101899.13;6214039;23;20020;-84
2022/05/21 00:14:27;;;;;;;7.73;4.47;;;;;;;10.73;84.09;101894.81;6215695;23;20008;-84
2022/05/21 00:16:52;;;;;;;6.90;4.30;;;;;;;10.76;84.53;101900.88;6215663;23;20001;-85
2022/05/21 00:19:17;;;;;;;7.80;4.10;;;;;;;10.77;83.88;101902.59;6217420;23;20004;-84
2022/05/21 00:21:42;;;;;;;5.50;3.43;;;;;;;10.80;84.09;101901.75;6217062;23;20413;-84
2022/05/21 00:24:08;;;;;;;6.47;3.60;;;;;;;10.81;84.63;101903.47;6216180;23;20035;-85
2022/05/21 00:26:33;;;;;;;8.57;4.40;;;;;;;10.77;84.29;101893.97;6217333;23;20030;-83
2022/05/21 00:28:58;;;;;;;6.57;4.10;;;;;;;10.79;85.03;101897.44;6216807;23;20393;-83
2022/05/21 00:31:24;;;;;;;5.40;3.80;;;;;;;10.78;84.40;101901.75;6215893;23;20397;-84
2022/05/21 00:33:49;;;;;;;6.10;3.67;;;;;;;10.78;84.75;101903.47;6216923;23;20009;-84
2022/05/21 00:36:15;;;;;;;4.90;3.37;;;;;;;10.70;84.35;101895.69;6216636;23;20005;-84
2022/05/21 00:38:42;;;;;;;7.07;3.93;;;;;;;10.72;85.07;101906.06;6215513;23;20005;-84
2022/05/21 00:41:08;;;;;;;;;;;;;;;10.73;84.63;101902.59;6217624;23;20005;-84
2022/05/21 00:43:34;;;;;;;;;;;;;;;10.72;84.66;101906.06;6217698;23;19930;-83
2022/05/21 00:45:59;;;;;;;7.07;3.50;;;;;;;10.74;84.34;101906.94;6215478;23;19908;-84
2022/05/21 00:48:25;;;;;;;4.30;3.23;;;;;;;10.77;84.86;101904.34;6217186;23;20087;-84
2022/05/21 00:50:52;;;;;;;6.43;3.58;;;;;;;10.79;85.03;101911.25;6216830;23;20334;-84
2022/05/21 00:53:17;;;;;;;6.60;3.67;;;;;;;10.82;84.67;101919.06;6216224;23;20051;-84
2022/05/21 00:55:43;;;;;;;5.33;3.10;;;;;;;10.84;84.59;101913.84;6216184;23;20004;-83
2022/05/21 01:01:01;;;;;;;4.40;2.97;;;;;;;10.89;84.58;101917.34;6215380;23;20441;-84
2022/05/21 01:03:28;;;;;;;4.70;3.20;;;;;;;10.89;84.73;101906.94;6216891;23;20005;-84
2022/05/21 01:05:54;;;;;;;3.30;2.63;;;;;;;10.89;84.20;101904.34;6216192;23;20406;-84
2022/05/21 01:08:19;;;;;;;5.00;2.97;;;;;;;10.95;84.38;101912.13;6189453;23;20028;-84
2022/05/21 01:10:49;;;;;;;3.53;2.60;;;;;;;10.98;84.96;101908.66;6216650;23;20008;-84
2022/05/21 01:13:19;;;;;;;3.83;2.88;;;;;;;10.98;84.59;101908.66;6215587;23;20084;-84
2022/05/21 01:15:48;;;;;;;2.97;2.40;;;;;;;11.03;83.89;101908.69;6216608;23;20000;-84
2022/05/21 01:18:14;;;;;;;4.47;2.88;;;;;;;11.02;84.32;101909.56;6216911;23;20004;-84
2022/05/21 01:20:47;;;;;;;4.57;2.90;;;;;;;11.01;84.13;101905.22;6215217;23;20452;-84
2022/05/21 01:23:14;;;;;;;6.78;3.50;;;;;;;10.99;84.92;101907.81;6216749;23;20028;-84
2022/05/21 01:25:40;;;;;;;;;;;;;;;11.02;84.76;101905.22;6216554;23;20366;-84
2022/05/21 01:28:12;;;;;;;4.38;3.00;;;;;;;11.01;84.98;101906.06;6215542;23;19911;-85
2022/05/21 01:30:40;;;;;;;5.28;2.80;;;;;;;11.06;84.07;101904.34;6216546;23;20027;-84
2022/05/21 01:33:09;;;;;;;4.75;2.55;;;;;;;11.05;84.36;101901.75;6216811;23;20363;-84
2022/05/21 01:35:35;;;;;;;3.78;2.28;;;;;;;11.07;84.13;101902.59;6215851;23;20008;-84
2022/05/21 01:38:00;;;;;;;2.33;2.05;;;;;;;11.09;84.04;101904.31;6216286;23;20004;-84
2022/05/21 01:40:27;;;;;;;2.87;2.20;;;;;;;11.11;84.56;101907.81;6216752;23;20035;-84
2022/05/21 01:45:36;;;;;;;2.95;2.38;;;;;;;11.11;84.53;101899.16;6216264;23;20292;-84
2022/05/21 01:48:03;;;;;;;5.27;2.87;;;;;;;11.07;84.92;101892.22;6216622;23;20005;-85
2022/05/21 01:50:29;;;;;;;;;;;;;;;11.09;84.47;101898.28;6216136;23;20008;-84
2022/05/21 01:52:54;;;;;;;4.75;2.67;;;;;;;11.08;84.30;101892.25;6215875;23;20026;-84
2022/05/21 01:55:20;;;;;;;4.70;2.40;;;;;;;11.10;83.99;101903.47;6215651;23;20012;-84
2022/05/21 01:57:46;;;;;;;4.63;2.37;;;;;;;11.12;84.31;101898.28;6216277;23;20411;-84
2022/05/21 02:00:12;;;;;;;3.27;2.50;;;;;;;11.09;84.48;101893.94;6216259;23;20040;-84
2022/05/21 02:02:37;;;;;;;5.55;2.70;;;;;;;11.12;84.77;101904.34;6214934;23;20008;-83
2022/05/21 02:05:03;;;;;;;3.53;2.37;;;;;;;11.14;84.29;101899.16;6216503;23;20326;-84
2022/05/21 02:07:28;;;;;;;4.53;2.73;;;;;;;11.16;84.55;101900.00;6216121;23;20091;-84
2022/05/21 02:09:53;;;;;;;2.80;2.40;;;;;;;11.17;84.10;101904.34;6215243;23;20051;-84
2022/05/21 02:12:19;;;;;;;3.07;2.40;;;;;;;11.17;84.78;101899.13;6216467;23;20016;-84
2022/05/21 02:14:44;;;;;;;3.07;2.10;;;;;;;11.19;84.02;101899.16;6216112;23;20054;-84
2022/05/21 02:17:10;;;;;;;3.57;1.90;;;;;;;11.21;84.10;101908.66;6215058;23;20090;-84
2022/05/21 02:19:35;;;;;;;2.43;1.97;;;;;;;11.24;84.01;101902.59;6216306;23;20013;-84
2022/05/21 02:22:03;;;;;;;4.63;2.67;;;;;;;11.24;84.07;101913.00;6215828;23;20482;-84
2022/05/21 02:24:28;;;;;;;2.40;2.20;;;;;;;11.25;83.56;101910.41;6215410;23;20036;-84
2022/05/21 02:26:53;;;;;;;3.30;2.40;;;;;;;11.26;84.51;101909.50;6215862;23;20012;-84
2022/05/21 02:29:19;;;;;;;5.17;2.57;;;;;;;11.27;84.45;101911.25;6215095;23;20013;-84
2022/05/21 02:31:44;;;;;;;4.57;2.70;;;;;;;11.25;85.05;101907.81;6214910;23;20411;-84
2022/05/21 02:34:09;;;;;;;4.20;2.70;;;;;;;11.28;84.62;101910.38;6216131;23;20032;-84
2022/05/21 02:39:31;;;;;;;4.38;2.70;;;;;;;11.28;84.23;101901.75;6214981;23;20020;-84
2022/05/21 02:42:00;;;;;;;2.97;2.35;;;;;;;11.30;84.79;101899.13;6215720;23;20008;-84
2022/05/21 02:44:27;;;;;;;2.55;2.17;;;;;;;11.31;84.17;101900.84;6215154;23;20376;-84
2022/05/21 02:46:53;;;;;;;2.47;2.20;;;;;;;11.35;83.74;101903.44;6215600;23;20095;-84
2022/05/21 02:49:19;;;;;;;2.10;1.90;;;;;;;11.36;83.89;101901.72;6215521;23;20425;-84
2022/05/21 02:51:44;;;;;;;4.40;2.20;;;;;;;11.36;84.00;101907.78;6214730;23;20005;-83
2022/05/21 02:54:14;;;;;;;3.77;2.30;;;;;;;11.37;84.18;101906.06;6215945;23;20012;-84
2022/05/21 02:56:48;;;;;;;3.30;2.10;;;;;;;11.37;83.88;101912.13;6214995;23;20023;-84
2022/05/21 02:59:14;;;;;;;5.65;2.60;;;;;;;11.37;84.16;101906.06;6215004;23;20004;-84
2022/05/21 03:01:40;;;;;;;3.53;2.40;;;;;;;11.35;84.87;101903.44;6215515;23;20027;-84
2022/05/21 03:04:05;;;;;;;3.57;2.37;;;;;;;11.34;84.59;101903.47;6215629;23;20005;-84
2022/05/21 03:06:33;;;;;;;4.88;2.45;;;;;;;11.35;84.03;101916.44;6213875;23;20039;-84
2022/05/21 03:11:42;;;;;;;4.20;2.60;;;;;;;11.33;84.52;101906.94;6214995;23;20063;-82
2022/05/21 03:14:07;;;;;;;2.67;2.27;;;;;;;11.36;83.81;101906.94;6214901;23;20353;-84
2022/05/21 03:16:32;;;;;;;4.47;2.40;;;;;;;11.36;84.14;101912.97;6215695;23;20036;-84
2022/05/21 03:18:59;;;;;;;2.50;2.30;;;;;;;11.34;84.51;101908.66;6214300;23;20366;-83
2022/05/21 03:21:24;;;;;;;3.97;2.60;;;;;;;11.36;84.70;101904.34;6214500;23;20035;-84
2022/05/21 03:23:49;;;;;;;6.17;3.13;;;;;;;11.37;84.44;101904.31;6215379;23;20012;-84
2022/05/21 03:26:15;;;;;;;4.20;2.60;;;;;;;11.38;84.33;101911.25;6215655;23;20076;-84
2022/05/21 03:28:40;;;;;;;2.50;2.07;;;;;;;11.39;83.90;101899.09;6214471;23;20011;-84
2022/05/21 03:31:05;;;;;;;2.63;2.30;;;;;;;11.41;84.22;101902.56;6215714;23;20075;-84
2022/05/21 03:33:31;;;;;;;2.60;2.17;;;;;;;11.40;84.06;101900.84;6215294;23;20039;-84
2022/05/21 03:35:57;;;;;;;2.60;2.00;;;;;;;11.41;83.81;101906.06;6214409;23;20008;-84
2022/05/21 03:38:24;;;;;;;2.15;1.95;;;;;;;11.44;84.11;101910.38;6215204;23;20020;-84
2022/05/21 03:40:49;;;;;;;2.17;1.97;;;;;;;11.44;84.06;101906.03;6214247;23;20043;-84
2022/05/21 03:43:14;;;;;;;2.40;1.90;;;;;;;11.42;84.18;101906.91;6215452;23;20500;-84
2022/05/21 03:45:40;;;;;;;2.33;2.13;;;;;;;11.46;84.27;101916.44;6214772;23;20084;-83
2022/05/21 03:48:06;;;;;;;2.78;1.92;;;;;;;11.45;84.33;101919.91;6214547;23;20001;-83
2022/05/21 03:50:32;;;;;;;3.67;2.40;;;;;;;11.45;83.39;101914.72;6215541;23;20011;-83
2022/05/21 03:52:57;;;;;;;4.17;2.70;;;;;;;11.44;84.24;101918.16;6215105;23;20338;-83
2022/05/21 03:55:23;;;;;;;5.17;2.77;;;;;;;11.43;84.40;101919.88;6214621;23;20038;-83
2022/05/21 03:57:48;;;;;;;5.03;2.60;;;;;;;11.43;84.27;101916.44;6214043;23;20004;-83
2022/05/21 04:00:17;;;;;;;6.37;3.07;;;;;;;11.42;84.29;101920.78;6215495;23;20357;-83
2022/05/21 04:02:42;;;;;;;4.43;2.78;;;;;;;11.42;85.01;101917.31;6214003;23;20128;-83
2022/05/21 04:05:10;;;;;;;7.93;3.23;;;;;;;11.39;85.10;101920.78;6215582;23;20036;-83
2022/05/21 04:07:36;;;;;;;3.40;2.60;;;;;;;11.40;84.27;101919.91;6215192;23;20005;-83
2022/05/21 04:10:02;;;;;;;3.85;2.67;;;;;;;11.41;84.71;101916.44;6214365;23;20008;-83
2022/05/21 04:12:27;;;;;;;3.87;2.53;;;;;;;11.43;84.24;101932.03;6214922;23;20327;-83
2022/05/21 04:14:52;;;;;;;2.50;2.30;;;;;;;11.43;84.44;101932.03;6215093;23;20460;-83
2022/05/21 04:17:17;;;;;;;3.70;2.50;;;;;;;11.42;84.36;101923.38;6214090;23;20084;-83
2022/05/21 04:19:43;;;;;;;2.50;2.10;;;;;;;11.43;84.31;101937.22;6214963;23;20005;-83
2022/05/21 04:22:09;;;;;;;2.83;2.20;;;;;;;11.42;84.95;101932.91;6215464;23;20445;-83
2022/05/21 04:24:34;;;;;;;3.60;2.38;;;;;;;11.44;84.26;101931.16;6214327;23;20032;-83
2022/05/21 04:27:00;;;;;;;2.30;1.80;;;;;;;11.46;84.11;101934.63;6214596;23;20034;-83
2022/05/21 04:29:31;;;;;;;3.83;2.27;;;;;;;11.45;84.83;101930.31;6215380;23;20000;-83
2022/05/21 04:31:56;;;;;;;4.15;2.95;;;;;;;11.47;84.49;101936.38;6213970;23;20020;-83
2022/05/21 04:34:21;;;;;;;6.50;3.00;;;;;;;11.46;85.59;101950.22;6215296;23;20356;-83
2022/05/21 04:36:47;;;;;;;3.50;2.70;;;;;;;11.43;84.50;101943.28;6214463;23;20005;-82
2022/05/21 04:39:12;;;;;;;5.47;2.67;;;;;;;11.49;84.54;101949.34;6214040;23;20005;-83
2022/05/21 04:41:37;;;;;;;5.10;3.00;;;;;;;11.49;85.00;101950.22;6214811;23;20414;-83
2022/05/21 04:44:03;;;;;;;5.57;3.07;;;;;;;11.50;85.11;101951.94;6214643;23;20087;-84
2022/05/21 04:46:29;;;;;;;8.33;3.43;;;;;;;11.51;85.21;101947.63;6214853;23;20008;-83
2022/05/21 04:48:55;;;;;;;5.65;3.10;;;;;;;11.53;85.11;101951.09;6214907;23;20374;-83
2022/05/21 04:51:20;;;;;;;5.97;2.93;;;;;;;11.54;85.10;101956.28;6214281;23;20012;-83
2022/05/21 04:53:46;;;;;;;2.83;2.43;;;;;;;11.56;85.23;101946.75;6214793;23;20001;-83
2022/05/21 04:56:12;;;;;;;3.30;2.60;;;;;;;11.58;84.41;101949.34;6215233;23;20005;-83
2022/05/21 04:58:37;;;;;;;3.17;2.33;;;;;;;11.59;84.92;101957.16;6214016;23;20084;-83
2022/05/21 05:01:04;;;;;;;3.67;2.50;;;;;;;11.62;84.48;101953.69;6216539;23;20012;-83
2022/05/21 05:03:29;;;;;;;4.78;2.55;;;;;;;11.66;84.36;101957.13;6216916;23;20361;-83
2022/05/21 05:05:55;;;;;;;5.23;3.13;;;;;;;11.65;85.25;101956.25;6215302;23;20004;-83
2022/05/21 05:08:21;;;;;;;4.93;3.00;;;;;;;11.67;84.98;101953.66;6216480;23;20011;-83
2022/05/21 05:10:47;;;;;;;6.07;3.10;;;;;;;11.69;84.24;101957.97;6216652;23;19996;-83
2022/05/21 05:13:14;;;;;;;7.18;3.30;;;;;;;11.70;84.61;101957.13;6215571;23;20015;-83
2022/05/21 05:15:41;;;;;;;6.80;3.80;;;;;;;11.72;85.43;101965.78;6216477;23;20016;-84
2022/05/21 05:18:14;;;;;;;6.85;3.85;;;;;;;11.73;84.40;101974.44;6216536;23;20545;-83
2022/05/21 05:20:41;;;;;;;6.00;3.15;;;;;;;11.77;84.42;101975.28;6215632;23;20095;-82
2022/05/21 05:23:07;;;;;;;6.80;3.30;;;;;;;11.81;83.67;101977.91;6216752;23;20075;-83
2022/05/21 05:25:34;;;;;;;7.77;3.73;;;;;;;11.80;84.49;101981.38;6216889;23;20072;-84
2022/05/21 05:28:00;;;;;;;6.22;3.70;;;;;;;11.83;84.07;101977.91;6215593;23;20037;-83
2022/05/21 05:30:26;;;;;;;5.77;3.63;;;;;;;11.88;84.74;101986.53;6216825;23;20004;-82
2022/05/21 05:32:52;;;;;;;5.30;3.05;;;;;;;11.90;84.27;101990.00;6216326;23;20028;-85
2022/05/21 05:35:19;;;;;;;4.03;2.97;;;;;;;11.91;84.16;101991.75;6216012;23;20067;-86
2022/05/21 05:37:44;;;;;;;;;;;;;;;12.00;84.80;101993.50;6190083;23;20422;-84
2022/05/21 05:40:13;;;;;;;7.13;3.67;;;;;;;12.02;84.68;101997.81;6216757;23;19919;-80
2022/05/21 05:42:41;;;;;;;4.63;2.90;;;;;;;12.09;84.35;101993.47;6215403;23;20011;-77
2022/05/21 05:45:10;;;;;;;7.70;4.00;;;;;;;12.12;84.39;101995.19;6216750;23;20329;-77
2022/05/21 05:47:35;;;;;;;10.95;4.70;;;;;;;12.13;84.79;101997.81;6215687;23;20032;-77
2022/05/21 05:50:00;;;;;;;12.23;5.87;;;;;;;12.14;84.42;101996.94;6215932;23;20011;-82
2022/05/21 05:52:27;;;;;;;13.10;6.00;;;;;;;12.16;84.37;101997.75;6216393;23;20010;-78
2022/05/21 05:54:53;;;;;;;9.32;4.88;;;;;;;12.18;84.06;102001.25;6215338;23;20012;-78
2022/05/21 05:57:19;;;;;;;8.23;4.30;;;;;;;12.26;84.11;101997.75;6216591;23;20011;-79
2022/05/21 05:59:51;;;;;;;6.47;3.70;;;;;;;12.32;84.19;102000.31;6216156;23;20027;-82
2022/05/21 06:05:22;;;;;;;9.65;4.63;;;;;;;12.45;83.55;102001.13;6216114;23;20035;-83
2022/05/21 06:07:51;;;;;;;7.57;4.47;;;;;;;12.45;83.52;102004.63;6216173;23;20028;-82
2022/05/21 06:10:19;;;;;;;5.82;3.78;;;;;;;12.48;83.47;102004.59;6215519;23;20000;-82
2022/05/21 06:12:44;;;;;;;9.65;4.38;;;;;;;12.52;83.82;102008.91;6214970;23;20012;-83
2022/05/21 06:15:11;;;;;;;8.90;4.70;;;;;;;12.57;83.91;102008.03;6216412;23;20447;-82
2022/05/21 06:17:38;;;;;;;10.15;4.70;;;;;;;12.58;83.34;102001.97;6215195;23;20322;-83
2022/05/21 06:20:05;;;;;;;9.70;4.75;;;;;;;12.57;83.39;102006.28;6216409;23;20039;-82
2022/05/21 06:22:32;;;;;;;11.95;5.85;;;;;;;12.54;83.16;102011.53;6214964;23;20043;-81
2022/05/21 06:24:58;;;;;;;15.52;6.63;;;;;;;12.55;82.91;102015.88;6215900;23;20012;-83
2022/05/21 06:27:23;;;;;;;8.83;5.07;;;;;;;12.61;83.71;102014.97;6216313;23;20008;-83
2022/05/21 06:29:48;;;;;;;12.33;6.40;;;;;;;12.67;83.65;102017.53;6214480;23;20001;-83
2022/05/21 06:32:13;;;;;;;11.00;5.90;;;;;;;12.82;83.31;102027.00;6215882;23;20058;-83
2022/05/21 06:34:39;;;;;;;12.53;6.13;;;;;;;13.04;82.15;102022.53;6216017;23;20154;-83
2022/05/21 06:37:09;;;;;;;11.40;6.80;;;;;;;13.49;83.19;102027.41;6215334;23;20001;-78
2022/05/21 06:39:39;;;;;;;13.25;6.30;;;;;;;13.73;82.11;102028.97;6216271;23;20004;-78
2022/05/21 06:42:05;;;;;;;9.57;5.35;;;;;;;13.80;80.45;102031.50;6215644;23;20008;-78
2022/05/21 06:44:30;;;;;;;10.68;5.47;;;;;;;13.89;80.25;102029.66;6214799;23;20012;-79
2022/05/21 06:46:56;;;;;;;13.87;6.13;;;;;;;14.07;79.53;102035.56;6215975;23;20087;-84
2022/05/21 06:49:22;;;;;;;11.70;6.00;;;;;;;14.11;79.91;102032.06;6216212;23;20326;-85
2022/05/21 06:51:52;;;;;;;8.40;5.57;;;;;;;14.13;80.21;102038.09;6214100;23;20569;-81
2022/05/21 06:54:17;;;;;;;9.05;5.43;;;;;;;14.20;79.19;102039.78;6216147;23;20011;-85
2022/05/21 06:56:42;;;;;;;10.57;5.70;;;;;;;14.24;78.37;102030.16;6215686;23;20075;-81
2022/05/21 06:59:07;;;;;;;9.50;5.23;;;;;;;14.30;79.61;102035.28;6214722;23;20409;-82
2022/05/21 07:01:33;;;;;;;7.70;4.43;;;;;;;14.46;79.66;102037.72;6215617;23;20008;-80
2022/05/21 07:03:58;;;;;;;6.63;4.10;;;;;;;14.67;79.42;102036.63;6215051;23;20013;-80
2022/05/21 07:09:07;;;;;;;9.40;5.13;;;;;;;14.78;78.01;102042.56;6215727;23;20051;-85
2022/05/21 07:11:33;;;;;;;8.10;4.13;;;;;;;14.77;78.23;102048.69;6215374;23;20004;-84
2022/05/21 07:13:59;;;;;;;12.00;5.27;;;;;;;14.70;77.76;102046.16;6214026;23;20385;-83
2022/05/21 07:16:25;;;;;;;8.37;4.60;;;;;;;14.63;77.65;102056.69;6215432;23;20445;-85
2022/05/21 07:18:50;;;;;;;12.93;5.47;;;;;;;14.50;77.17;102050.72;6214658;23;20260;-86
2022/05/21 07:21:18;;;;;;;8.37;4.80;;;;;;;14.43;78.10;102056.03;6214753;23;20473;-84
2022/05/21 07:23:45;;;;;;;13.02;6.20;;;;;;;14.31;77.01;102064.91;6214957;23;20005;-84
2022/05/21 07:26:11;;;;;;;13.27;6.28;;;;;;;14.20;77.32;102067.63;6214950;23;20092;-84
2022/05/21 07:28:36;;;;;;;11.18;5.50;;;;;;;14.15;77.61;102072.88;6215181;23;20429;-82
2022/05/21 07:31:01;;;;;;;12.40;5.43;;;;;;;14.11;77.37;102066.00;6215437;23;20012;-83
2022/05/21 07:33:27;;;;;;;9.47;4.63;;;;;;;14.13;77.98;102065.97;6215579;23;20028;-87
2022/05/21 07:35:52;;;;;;;7.47;4.33;;;;;;;14.20;78.53;102070.22;6214981;23;20004;-85
2022/05/21 07:38:17;;;;;;;6.33;3.93;;;;;;;14.25;78.28;102062.34;6215804;23;20004;-83
2022/05/21 07:40:45;;;;;;;6.43;3.30;;;;;;;14.35;78.80;102067.47;6213978;23;20001;-82
2022/05/21 07:43:18;;;;;;;7.05;3.85;;;;;;;14.46;78.32;102059.50;6215474;23;20011;-83
2022/05/21 07:45:46;;;;;;;12.13;5.70;;;;;;;14.58;77.79;102060.25;6214919;23;20027;-83
2022/05/21 07:48:16;;;;;;;8.10;4.80;;;;;;;14.76;77.53;102064.38;6214607;23;20058;-83
2022/05/21 07:50:44;;;;;;;12.02;4.95;;;;;;;14.93;77.29;102064.13;6214244;23;20079;-82
2022/05/21 07:53:22;;;;;;;12.32;5.63;;;;;;;15.11;77.07;102073.47;6215031;23;20086;-84
2022/05/21 07:55:50;;;;;;;10.38;5.88;;;;;;;15.25;75.83;102078.53;6214398;23;20008;-83
2022/05/21 07:58:17;;;;;;;11.38;5.63;;;;;;;15.34;76.05;102085.34;6215168;23;20000;-83
2022/05/21 08:00:42;;;;;;;14.73;6.75;;;;;;;15.35;73.97;102074.88;6215058;23;20012;-83
2022/05/21 08:03:08;;;;;;;11.80;6.00;;;;;;;15.32;74.61;102081.88;6214411;23;20009;-83
2022/05/21 08:05:34;;;;;;;11.27;5.17;;;;;;;15.24;74.94;102075.03;6215076;23;20373;-83
2022/05/21 08:07:59;;;;;;;11.00;5.50;;;;;;;15.20;75.11;102075.09;6213695;23;20000;-84
2022/05/21 08:10:27;;;;;;;12.33;6.10;;;;;;;15.11;74.79;102090.03;6215448;23;20076;-85
2022/05/21 08:12:53;;;;;;;15.02;6.38;;;;;;;14.97;74.54;102092.81;6214392;23;20021;-83
2022/05/21 08:15:20;;;;;;;12.90;6.23;;;;;;;14.96;74.65;102092.84;6213755;23;20011;-84
2022/05/21 08:17:45;;;;;;;;;;;;;;;15.10;75.46;102096.16;6214771;23;20425;-83
2022/05/21 08:20:11;;;;;;;10.77;5.40;;;;;;;15.37;74.86;102098.38;6215397;23;19936;-84
2022/05/21 08:28:16;;;;;;;9.05;4.55;;;;;;;15.72;72.93;102092.56;6215299;23;20104;-84
2022/05/21 08:30:42;;;;;;;5.72;3.65;;;;;;;15.76;73.99;102093.41;6214039;23;20001;-83
2022/05/21 08:33:08;;;;;;;;;;;;;;;15.81;72.88;102091.56;6215756;23;20009;-83
2022/05/21 08:35:34;;;;;;;4.47;3.28;;;;;;;15.88;74.12;102092.34;6215928;23;19915;-83
2022/05/21 08:38:00;;;;;;;5.38;3.22;;;;;;;15.98;74.06;102096.53;6215968;23;20020;-83
2022/05/21 08:40:55;;;;;;;8.13;4.40;;;;;;;16.10;71.21;102097.19;6217030;23;20004;-83
2022/05/21 08:43:31;;;;;;;10.77;5.20;;;;;;;16.20;70.54;102090.88;6216066;23;20078;-83
2022/05/21 08:46:22;;;;;;;9.02;4.30;;;;;;;16.21;70.64;102108.34;6216871;23;20005;-83
2022/05/21 08:49:01;;;;;;;6.05;3.80;;;;;;;16.17;69.84;102107.53;6216911;23;20084;-82
2022/05/21 08:51:31;;;;;;;7.40;3.58;;;;;;;16.12;69.99;102100.66;6216303;23;20070;-83
2022/05/21 08:53:57;;;;;;;5.70;3.42;;;;;;;16.19;70.34;102094.41;6216214;23;20009;-85
2022/05/21 08:56:23;;;;;;;7.65;4.00;;;;;;;16.35;71.04;102098.47;6216945;23;20005;-85
2022/05/21 08:59:41;;;;;;;8.37;3.90;;;;;;;16.61;70.11;102090.97;6216195;23;20008;-85
2022/05/21 09:02:14;;;;;;;9.80;4.70;;;;;;;16.92;65.70;102085.94;6208660;23;20020;-85
2022/05/21 09:04:40;;;;;;;12.50;5.57;;;;;;;17.08;67.59;102098.72;6214653;23;20013;-83
2022/05/21 09:07:16;;;;;;;13.40;5.80;;;;;;;17.10;67.15;102089.06;6216649;23;20005;-84
2022/05/21 09:09:55;;;;;;;10.30;5.15;;;;;;;17.00;67.86;102092.78;6214807;23;20008;-83
2022/05/21 09:12:23;;;;;;;8.70;4.82;;;;;;;16.99;65.16;102084.06;6215416;23;20433;-84
2022/05/21 09:14:52;;;;;;;8.48;4.82;;;;;;;17.05;68.27;102081.28;6216443;23;20009;-83
2022/05/21 09:17:24;;;;;;;9.07;4.80;;;;;;;17.15;64.74;102087.22;6216327;23;20005;-82
2022/05/21 09:20:04;;;;;;;7.78;4.40;;;;;;;17.17;64.59;102079.28;6215289;23;20004;-83
2022/05/21 09:22:30;;;;;;;7.80;3.90;;;;;;;17.25;66.26;102072.97;6216292;23;20528;-83
2022/05/21 09:25:00;;;;;;;5.23;3.00;;;;;;;17.46;66.80;102089.09;6215636;23;20107;-83
2022/05/21 09:27:42;;;;;;;11.63;4.35;;;;;;;17.66;65.42;102072.84;6215199;23;20242;-83
2022/05/21 09:30:16;;;;;;;9.63;4.40;;;;;;;17.92;64.75;102066.03;6216769;23;20020;-83
2022/05/21 09:32:52;;;;;;;10.77;5.00;;;;;;;17.99;64.44;102064.13;6215512;23;20683;-83
2022/05/21 09:35:21;;;;;;;9.50;4.53;;;;;;;17.86;63.07;102087.22;6216304;23;20076;-83
2022/05/21 09:37:46;;;;;;;6.38;3.72;;;;;;;17.62;63.50;102080.84;6216370;23;20009;-83
2022/05/21 09:40:30;;;;;;;5.50;3.60;;;;;;;17.36;64.19;102088.44;6215719;23;19996;-83
2022/05/21 09:45:41;;;;;;;5.45;3.58;;;;;;;17.20;65.23;102090.56;6214750;23;20488;-83
2022/05/21 09:48:06;;;;;;;5.38;3.08;;;;;;;17.55;66.52;102098.50;6215075;23;20005;-83
2022/05/21 09:50:51;;;;;;;5.50;3.17;;;;;;;18.00;65.83;102090.38;6215269;23;20325;-83
2022/05/21 09:53:36;;;;;;;5.30;2.95;;;;;;;18.36;63.81;102084.16;6214439;23;20043;-84
2022/05/21 09:56:17;;;;;;;7.05;3.22;;;;;;;18.63;62.27;102079.84;6216387;23;20005;-85
2022/05/21 09:58:43;;;;;;;6.57;3.38;;;;;;;18.67;62.76;102093.78;6216053;23;20381;-85
2022/05/21 10:01:14;;;;;;;9.82;4.00;;;;;;;18.46;60.58;102090.03;6215272;23;20015;-85
2022/05/21 10:03:50;;;;;;;6.93;3.67;;;;;;;18.25;63.66;102096.72;6215538;23;20016;-85
2022/05/21 10:06:22;;;;;;;8.18;3.80;;;;;;;18.00;62.96;102094.75;6216065;23;20426;-85
2022/05/21 10:11:50;;;;;;;5.85;2.90;;;;;;;17.57;63.56;102086.19;6215285;23;20344;-85
2022/05/21 10:14:25;;;;;;;4.10;2.72;;;;;;;17.47;63.19;102106.56;6215661;23;20102;-85
2022/05/21 10:16:56;;;;;;;3.80;3.00;;;;;;;17.58;63.34;102099.28;6213662;23;20004;-85
2022/05/21 10:19:40;;;;;;;4.47;2.60;;;;;;;17.89;64.20;102090.63;6215847;23;20000;-85
2022/05/21 10:22:30;;;;;;;4.72;3.00;;;;;;;18.05;62.77;102095.50;6215344;23;20000;-85
2022/05/21 10:25:18;;;;;;;7.15;3.30;;;;;;;18.04;63.93;102092.00;6215744;23;20009;-85
2022/05/21 10:28:19;;;;;;;6.28;3.10;;;;;;;17.97;64.55;102087.84;6188312;23;20012;-84
2022/05/21 10:30:57;;;;;;;4.47;2.58;;;;;;;17.93;62.62;102095.81;6215156;23;20012;-86
2022/05/21 10:33:24;;;;;;;3.47;2.20;;;;;;;17.87;63.15;102086.31;6216039;23;20059;-86
2022/05/21 10:35:57;;;;;;;3.88;2.40;;;;;;;17.74;61.12;102086.63;6214904;23;20143;-86
2022/05/21 10:38:38;;;;;;;6.80;2.50;;;;;;;17.60;62.94;102107.13;6215995;23;20012;-86
2022/05/21 10:41:42;;;;;;;3.65;2.40;;;;;;;17.49;64.11;102109.13;6215153;23;20008;-83
2022/05/21 10:44:30;;;;;;;3.83;2.45;;;;;;;17.42;64.70;102109.31;6214812;23;20005;-86
2022/05/21 10:47:20;;;;;;;5.00;3.00;;;;;;;17.39;65.29;102105.91;6215236;23;20032;-86
2022/05/21 10:50:08;;;;;;;7.45;3.30;;;;;;;17.52;64.50;102107.31;6214486;23;20005;-86
2022/05/21 10:52:58;;;;;;;6.05;3.55;;;;;;;18.00;64.72;102107.91;6215886;23;20334;-86
2022/05/21 10:55:37;;;;;;;4.68;3.00;;;;;;;18.28;60.67;102089.63;6215452;23;20406;-86
2022/05/21 10:58:31;;;;;;;5.88;3.15;;;;;;;18.27;62.71;102094.94;6214265;23;20440;-86
2022/05/21 11:01:25;;;;;;;4.18;3.03;;;;;;;18.25;64.04;102101.97;6215653;23;20021;-86
2022/05/21 11:04:22;;;;;;;5.07;2.83;;;;;;;18.17;63.18;102110.94;6214075;23;20019;-86
2022/05/21 11:07:14;;;;;;;8.68;3.45;;;;;;;18.28;62.89;102105.38;6213073;23;20001;-87
2022/05/21 11:10:06;;;;;;;3.92;2.63;;;;;;;18.60;63.64;102102.75;6212031;23;20008;-86
2022/05/21 11:12:59;;;;;;;5.03;2.70;;;;;;;18.85;61.34;102105.50;6212386;23;20012;-87
2022/05/21 11:15:38;;;;;;;3.65;2.50;;;;;;;18.98;62.47;102109.53;6215216;23;20083;-86
2022/05/21 11:18:20;;;;;;;2.13;1.90;;;;;;;19.13;61.67;102118.72;6214751;23;20004;-85
2022/05/21 11:21:04;;;;;;;4.63;2.20;;;;;;;19.13;60.59;102116.09;6214924;23;20452;-85
2022/05/21 11:23:34;;;;;;;3.85;2.40;;;;;;;19.18;59.69;102120.34;6215533;23;20067;-85
2022/05/21 11:26:10;;;;;;;2.60;2.00;;;;;;;19.18;60.75;102115.09;6213855;23;20426;-85
2022/05/21 11:28:42;;;;;;;2.37;1.73;;;;;;;19.09;61.33;102111.81;6214641;23;20330;-85
2022/05/21 11:31:15;;;;;;;3.70;2.33;;;;;;;19.02;61.12;102118.19;6215676;23;20001;-85
2022/05/21 11:39:17;;;;;;;4.80;2.65;;;;;;;19.39;60.38;102103.00;6214315;23;20708;-85
2022/05/21 11:41:56;;;;;;;4.22;2.67;;;;;;;19.28;59.84;102119.16;6214574;23;20466;-85
2022/05/21 11:47:20;;;;;;;2.65;2.20;;;;;;;18.89;59.34;102104.53;6214349;23;20449;-86
2022/05/21 11:49:57;;;;;;;4.30;2.10;;;;;;;18.88;59.96;102108.06;6215083;23;20031;-86
2022/05/21 11:52:25;;;;;;;2.50;1.80;;;;;;;19.03;59.24;102108.53;6215490;23;20012;-86
2022/05/21 11:54:51;;;;;;;3.25;2.10;;;;;;;19.25;58.82;102100.81;6212522;23;20011;-86
2022/05/21 11:57:35;;;;;;;3.27;1.70;;;;;;;19.38;57.25;102096.00;6215288;23;20004;-86
2022/05/21 12:00:18;;;;;;;2.10;1.80;;;;;;;19.47;58.43;102089.59;6214181;23;20009;-85
2022/05/21 12:03:03;;;;;;;4.80;2.20;;;;;;;19.60;58.45;102090.91;6214651;23;20012;-86
2022/05/21 12:05:41;;;;;;;2.90;2.00;;;;;;;19.62;58.70;102096.13;6215286;23;20004;-84
2022/05/21 12:08:16;;;;;;;4.82;2.17;;;;;;;19.52;56.98;102098.22;6214206;23;20083;-84
2022/05/21 12:10:57;;;;;;;2.30;1.90;;;;;;;19.43;55.87;102091.47;6214683;23;20005;-86
2022/05/21 12:13:34;;;;;;;2.92;2.10;;;;;;;19.38;56.38;102096.00;6214777;23;20016;-84
2022/05/21 12:16:21;;;;;;;3.05;1.83;;;;;;;19.57;56.01;102089.25;6214123;23;20012;-86